sensor_id;sensor_type;location;lat;lon;timestamp;pressure;altitude;pressure_sealevel;temperature;humidity
37892;BME280;45797;47.466;9.486;2023-05-10T00:04:29;95329.91;;;16.16;70.02
37892;BME280;45797;47.466;9.486;2023-05-10T00:09:34;95347.91;;;16.12;69.86
37892;BME280;45797;47.466;9.486;2023-05-10T00:14:39;95343.88;;;16.08;69.95
37892;BME280;45797;47.466;9.486;2023-05-10T00:19:51;95359.16;;;15.96;70.18
37892;BME280;45797;47.466;9.486;2023-05-10T00:24:54;95373.78;;;15.83;70.33
37892;BME280;45797;47.466;9.486;2023-05-10T00:30:05;95380.47;;;15.59;70.56
37892;BME280;45797;47.466;9.486;2023-05-10T00:35:14;95393.22;;;15.28;71.16
37892;BME280;45797;47.466;9.486;2023-05-10T00:40:14;95382.78;;;15.09;71.70
37892;BME280;45797;47.466;9.486;2023-05-10T00:45:19;95385.63;;;14.98;71.71
37892;BME280;45797;47.466;9.486;2023-05-10T00:50:32;95381.13;;;14.80;71.67
37892;BME280;45797;47.466;9.486;2023-05-10T00:55:33;95383.81;;;14.71;72.12
37892;BME280;45797;47.466;9.486;2023-05-10T01:00:34;95388.16;;;14.62;72.18
37892;BME280;45797;47.466;9.486;2023-05-10T01:05:35;95388.06;;;14.54;72.07
37892;BME280;45797;47.466;9.486;2023-05-10T01:10:36;95379.72;;;14.49;72.01
37892;BME280;45797;47.466;9.486;2023-05-10T01:15:39;95389.75;;;14.45;71.86
37892;BME280;45797;47.466;9.486;2023-05-10T01:20:43;95380.56;;;14.40;72.16
37892;BME280;45797;47.466;9.486;2023-05-10T01:26:13;95395.16;;;14.34;71.94
37892;BME280;45797;47.466;9.486;2023-05-10T01:31:22;95378.78;;;14.30;71.97
37892;BME280;45797;47.466;9.486;2023-05-10T01:36:47;95393.09;;;14.28;72.09
37892;BME280;45797;47.466;9.486;2023-05-10T01:41:59;95399.47;;;14.25;71.83
37892;BME280;45797;47.466;9.486;2023-05-10T01:47:26;95390.75;;;14.25;71.92
37892;BME280;45797;47.466;9.486;2023-05-10T01:52:37;95393.53;;;14.23;72.18
37892;BME280;45797;47.466;9.486;2023-05-10T01:57:51;95405.88;;;14.23;71.81
37892;BME280;45797;47.466;9.486;2023-05-10T02:03:23;95397.56;;;14.18;71.58
37892;BME280;45797;47.466;9.486;2023-05-10T02:08:34;95400.88;;;14.20;71.48
37892;BME280;45797;47.466;9.486;2023-05-10T02:13:37;95412.94;;;14.22;72.38
37892;BME280;45797;47.466;9.486;2023-05-10T02:18:43;95404.75;;;14.25;71.55
37892;BME280;45797;47.466;9.486;2023-05-10T02:23:45;95412.66;;;14.25;71.32
37892;BME280;45797;47.466;9.486;2023-05-10T02:28:56;95408.06;;;14.27;71.43
37892;BME280;45797;47.466;9.486;2023-05-10T02:33:59;95403.38;;;14.31;71.56
37892;BME280;45797;47.466;9.486;2023-05-10T02:39:12;95410.41;;;14.30;71.53
37892;BME280;45797;47.466;9.486;2023-05-10T02:44:15;95409.47;;;14.32;71.42
37892;BME280;45797;47.466;9.486;2023-05-10T02:49:18;95413.59;;;14.34;71.13
37892;BME280;45797;47.466;9.486;2023-05-10T02:54:29;95412.09;;;14.32;71.00
37892;BME280;45797;47.466;9.486;2023-05-10T02:59:55;95421.25;;;14.27;71.07
37892;BME280;45797;47.466;9.486;2023-05-10T03:04:56;95416.53;;;14.31;71.54
37892;BME280;45797;47.466;9.486;2023-05-10T03:09:58;95410.00;;;14.35;70.91
37892;BME280;45797;47.466;9.486;2023-05-10T03:20:46;95428.72;;;14.32;70.80
37892;BME280;45797;47.466;9.486;2023-05-10T03:25:49;95425.81;;;14.35;70.81
37892;BME280;45797;47.466;9.486;2023-05-10T03:31:00;95433.56;;;14.37;70.85
37892;BME280;45797;47.466;9.486;2023-05-10T03:36:05;95424.69;;;14.38;70.99
37892;BME280;45797;47.466;9.486;2023-05-10T03:41:08;95436.75;;;14.40;70.75
37892;BME280;45797;47.466;9.486;2023-05-10T03:46:09;95437.84;;;14.38;70.89
37892;BME280;45797;47.466;9.486;2023-05-10T03:51:11;95440.91;;;14.43;70.86
37892;BME280;45797;47.466;9.486;2023-05-10T03:56:15;95445.75;;;14.47;70.63
37892;BME280;45797;47.466;9.486;2023-05-10T04:01:16;95444.94;;;14.47;70.59
37892;BME280;45797;47.466;9.486;2023-05-10T04:06:17;95443.13;;;14.47;70.59
37892;BME280;45797;47.466;9.486;2023-05-10T04:11:18;95437.72;;;14.49;70.53
37892;BME280;45797;47.466;9.486;2023-05-10T04:16:19;95444.66;;;14.50;70.83
37892;BME280;45797;47.466;9.486;2023-05-10T04:21:25;95443.41;;;14.54;70.69
37892;BME280;45797;47.466;9.486;2023-05-10T04:26:27;95452.66;;;14.58;70.44
37892;BME280;45797;47.466;9.486;2023-05-10T04:31:27;95443.09;;;14.57;70.37
37892;BME280;45797;47.466;9.486;2023-05-10T04:36:30;95443.38;;;14.64;70.29
37892;BME280;45797;47.466;9.486;2023-05-10T04:41:32;95448.78;;;14.62;70.06
37892;BME280;45797;47.466;9.486;2023-05-10T04:46:43;95448.19;;;14.68;69.95
37892;BME280;45797;47.466;9.486;2023-05-10T04:51:43;95444.56;;;14.79;69.64
37892;BME280;45797;47.466;9.486;2023-05-10T04:56:50;95446.47;;;14.86;69.25
37892;BME280;45797;47.466;9.486;2023-05-10T05:01:50;95443.41;;;14.91;69.47
37892;BME280;45797;47.466;9.486;2023-05-10T05:06:59;95447.81;;;15.00;69.12
37892;BME280;45797;47.466;9.486;2023-05-10T05:12:05;95455.66;;;15.10;69.12
37892;BME280;45797;47.466;9.486;2023-05-10T05:17:08;95451.91;;;15.12;68.73
37892;BME280;45797;47.466;9.486;2023-05-10T05:22:11;95462.69;;;15.19;68.76
37892;BME280;45797;47.466;9.486;2023-05-10T05:27:12;95466.69;;;15.23;68.74
37892;BME280;45797;47.466;9.486;2023-05-10T05:32:25;95473.78;;;15.23;68.39
37892;BME280;45797;47.466;9.486;2023-05-10T05:37:25;95479.88;;;15.23;68.55
37892;BME280;45797;47.466;9.486;2023-05-10T05:42:27;95485.72;;;15.27;68.61
37892;BME280;45797;47.466;9.486;2023-05-10T05:47:34;95484.59;;;15.29;68.50
37892;BME280;45797;47.466;9.486;2023-05-10T05:52:37;95487.06;;;15.31;68.29
37892;BME280;45797;47.466;9.486;2023-05-10T05:57:48;95482.94;;;15.28;68.26
37892;BME280;45797;47.466;9.486;2023-05-10T06:02:49;95487.22;;;15.29;68.58
37892;BME280;45797;47.466;9.486;2023-05-10T06:07:49;95498.09;;;15.26;67.89
37892;BME280;45797;47.466;9.486;2023-05-10T06:12:51;95497.97;;;15.18;68.35
37892;BME280;45797;47.466;9.486;2023-05-10T06:17:52;95510.25;;;15.09;68.75
37892;BME280;45797;47.466;9.486;2023-05-10T06:22:52;95517.91;;;15.03;68.61
37892;BME280;45797;47.466;9.486;2023-05-10T06:27:53;95517.75;;;15.04;68.85
37892;BME280;45797;47.466;9.486;2023-05-10T06:33:06;95513.03;;;15.08;68.50
37892;BME280;45797;47.466;9.486;2023-05-10T06:38:06;95524.09;;;15.11;68.64
37892;BME280;45797;47.466;9.486;2023-05-10T06:43:09;95523.81;;;15.14;68.34
37892;BME280;45797;47.466;9.486;2023-05-10T06:48:10;95524.63;;;15.15;68.17
37892;BME280;45797;47.466;9.486;2023-05-10T06:53:12;95519.91;;;15.19;68.46
37892;BME280;45797;47.466;9.486;2023-05-10T06:58:13;95532.28;;;15.18;68.56
37892;BME280;45797;47.466;9.486;2023-05-10T07:03:16;95532.56;;;15.15;67.97
37892;BME280;45797;47.466;9.486;2023-05-10T07:08:17;95524.94;;;15.12;68.19
37892;BME280;45797;47.466;9.486;2023-05-10T07:13:18;95535.50;;;15.12;68.19
37892;BME280;45797;47.466;9.486;2023-05-10T07:18:25;95540.47;;;15.15;68.06
37892;BME280;45797;47.466;9.486;2023-05-10T07:23:25;95538.38;;;15.19;67.70
37892;BME280;45797;47.466;9.486;2023-05-10T07:28:35;95543.63;;;15.28;67.22
37892;BME280;45797;47.466;9.486;2023-05-10T07:33:37;95542.44;;;15.40;66.69
37892;BME280;45797;47.466;9.486;2023-05-10T07:38:41;95536.53;;;15.56;66.64
37892;BME280;45797;47.466;9.486;2023-05-10T07:43:43;95546.94;;;15.67;66.57
37892;BME280;45797;47.466;9.486;2023-05-10T07:48:44;95551.75;;;15.72;66.01
37892;BME280;45797;47.466;9.486;2023-05-10T07:53:45;95562.41;;;15.80;66.11
37892;BME280;45797;47.466;9.486;2023-05-10T07:58:48;95553.59;;;15.89;65.69
37892;BME280;45797;47.466;9.486;2023-05-10T08:04:08;95569.03;;;15.94;65.43
37892;BME280;45797;47.466;9.486;2023-05-10T08:09:10;95567.88;;;15.96;65.76
37892;BME280;45797;47.466;9.486;2023-05-10T08:14:10;95565.25;;;15.96;65.16
37892;BME280;45797;47.466;9.486;2023-05-10T08:19:11;95569.84;;;15.94;65.38
37892;BME280;45797;47.466;9.486;2023-05-10T08:24:17;95577.09;;;15.92;65.16
37892;BME280;45797;47.466;9.486;2023-05-10T08:29:31;95573.47;;;15.93;65.21
37892;BME280;45797;47.466;9.486;2023-05-10T08:34:33;95565.63;;;16.02;64.77
37892;BME280;45797;47.466;9.486;2023-05-10T08:39:35;95564.72;;;16.11;64.77
37892;BME280;45797;47.466;9.486;2023-05-10T08:44:37;95571.06;;;16.18;64.24
37892;BME280;45797;47.466;9.486;2023-05-10T08:49:41;95572.81;;;16.27;63.86
37892;BME280;45797;47.466;9.486;2023-05-10T08:54:43;95574.03;;;16.33;63.90
37892;BME280;45797;47.466;9.486;2023-05-10T08:59:45;95583.03;;;16.40;63.61
37892;BME280;45797;47.466;9.486;2023-05-10T09:04:46;95579.53;;;16.39;63.35
37892;BME280;45797;47.466;9.486;2023-05-10T09:09:51;95592.81;;;16.47;63.23
37892;BME280;45797;47.466;9.486;2023-05-10T09:14:54;95600.97;;;16.54;63.12
37892;BME280;45797;47.466;9.486;2023-05-10T09:20:03;95597.44;;;16.45;63.11
37892;BME280;45797;47.466;9.486;2023-05-10T09:25:15;95606.66;;;16.41;63.35
37892;BME280;45797;47.466;9.486;2023-05-10T09:30:29;95591.53;;;16.34;63.49
37892;BME280;45797;47.466;9.486;2023-05-10T09:35:32;95600.47;;;16.33;63.73
37892;BME280;45797;47.466;9.486;2023-05-10T09:40:33;95595.91;;;16.25;63.58
37892;BME280;45797;47.466;9.486;2023-05-10T09:45:43;95588.91;;;16.34;63.34
37892;BME280;45797;47.466;9.486;2023-05-10T09:50:43;95583.53;;;16.43;63.14
37892;BME280;45797;47.466;9.486;2023-05-10T09:55:46;95586.19;;;16.61;62.80
37892;BME280;45797;47.466;9.486;2023-05-10T10:00:47;95577.03;;;16.73;62.46
37892;BME280;45797;47.466;9.486;2023-05-10T10:05:54;95581.97;;;16.94;62.37
37892;BME280;45797;47.466;9.486;2023-05-10T10:10:56;95576.47;;;17.13;61.69
37892;BME280;45797;47.466;9.486;2023-05-10T10:15:57;95585.72;;;17.35;61.57
37892;BME280;45797;47.466;9.486;2023-05-10T10:21:00;95586.59;;;17.44;60.67
37892;BME280;45797;47.466;9.486;2023-05-10T10:26:03;95597.53;;;17.49;60.31
37892;BME280;45797;47.466;9.486;2023-05-10T10:36:25;95600.69;;;17.53;60.43
37892;BME280;45797;47.466;9.486;2023-05-10T10:41:52;95593.91;;;17.50;60.38
37892;BME280;45797;47.466;9.486;2023-05-10T10:52:33;95589.13;;;17.54;60.15
37892;BME280;45797;47.466;9.486;2023-05-10T10:57:56;95594.94;;;17.57;59.88
37892;BME280;45797;47.466;9.486;2023-05-10T11:03:06;95586.66;;;17.60;59.88
37892;BME280;45797;47.466;9.486;2023-05-10T11:08:28;95598.91;;;17.61;59.54
37892;BME280;45797;47.466;9.486;2023-05-10T11:13:34;95606.22;;;17.67;59.11
37892;BME280;45797;47.466;9.486;2023-05-10T11:18:36;95595.75;;;17.58;59.21
37892;BME280;45797;47.466;9.486;2023-05-10T11:28:48;95595.31;;;17.62;59.20
37892;BME280;45797;47.466;9.486;2023-05-10T11:33:54;95601.44;;;17.63;58.84
37892;BME280;45797;47.466;9.486;2023-05-10T11:39:07;95584.38;;;17.65;58.72
37892;BME280;45797;47.466;9.486;2023-05-10T11:44:14;95590.19;;;17.69;58.68
37892;BME280;45797;47.466;9.486;2023-05-10T11:49:16;95597.00;;;17.72;58.21
37892;BME280;45797;47.466;9.486;2023-05-10T11:54:25;95597.38;;;17.77;57.83
37892;BME280;45797;47.466;9.486;2023-05-10T11:59:32;95605.31;;;17.77;57.97
37892;BME280;45797;47.466;9.486;2023-05-10T12:04:33;95613.34;;;17.67;58.27
37892;BME280;45797;47.466;9.486;2023-05-10T12:10:11;95615.28;;;17.57;58.13
37892;BME280;45797;47.466;9.486;2023-05-10T12:15:23;95626.06;;;17.55;58.24
37892;BME280;45797;47.466;9.486;2023-05-10T12:20:27;95622.09;;;17.59;57.87
37892;BME280;45797;47.466;9.486;2023-05-10T12:25:34;95628.06;;;17.61;58.38
37892;BME280;45797;47.466;9.486;2023-05-10T12:30:37;95632.72;;;17.67;58.10
37892;BME280;45797;47.466;9.486;2023-05-10T12:35:52;95637.03;;;17.68;58.18
37892;BME280;45797;47.466;9.486;2023-05-10T12:40:56;95645.25;;;17.57;58.51
37892;BME280;45797;47.466;9.486;2023-05-10T12:45:56;95655.91;;;17.39;58.62
37892;BME280;45797;47.466;9.486;2023-05-10T12:50:57;95639.63;;;17.26;58.57
37892;BME280;45797;47.466;9.486;2023-05-10T12:56:04;95632.78;;;17.24;58.35
37892;BME280;45797;47.466;9.486;2023-05-10T13:01:07;95631.69;;;17.26;57.95
37892;BME280;45797;47.466;9.486;2023-05-10T13:06:10;95631.84;;;17.25;58.36
37892;BME280;45797;47.466;9.486;2023-05-10T13:11:10;95639.78;;;17.25;58.06
37892;BME280;45797;47.466;9.486;2023-05-10T13:16:12;95627.66;;;17.22;57.97
37892;BME280;45797;47.466;9.486;2023-05-10T13:21:26;95616.78;;;17.25;58.07
37892;BME280;45797;47.466;9.486;2023-05-10T13:26:26;95622.06;;;17.25;58.37
37892;BME280;45797;47.466;9.486;2023-05-10T13:31:35;95614.63;;;17.29;57.67
37892;BME280;45797;47.466;9.486;2023-05-10T13:36:36;95608.69;;;17.27;58.03
37892;BME280;45797;47.466;9.486;2023-05-10T13:41:36;95618.28;;;17.28;58.01
37892;BME280;45797;47.466;9.486;2023-05-10T13:46:40;95613.69;;;17.38;57.73
37892;BME280;45797;47.466;9.486;2023-05-10T13:51:43;95601.84;;;17.50;57.13
37892;BME280;45797;47.466;9.486;2023-05-10T13:56:44;95593.00;;;17.67;57.20
37892;BME280;45797;47.466;9.486;2023-05-10T14:01:48;95592.25;;;17.83;56.57
37892;BME280;45797;47.466;9.486;2023-05-10T14:06:49;95586.31;;;17.89;56.63
37892;BME280;45797;47.466;9.486;2023-05-10T14:11:51;95591.16;;;18.02;56.51
37892;BME280;45797;47.466;9.486;2023-05-10T14:16:54;95586.72;;;18.19;56.30
37892;BME280;45797;47.466;9.486;2023-05-10T14:21:54;95583.78;;;18.30;56.04
37892;BME280;45797;47.466;9.486;2023-05-10T14:26:56;95583.78;;;18.38;56.10
37892;BME280;45797;47.466;9.486;2023-05-10T14:31:56;95578.97;;;18.34;56.08
37892;BME280;45797;47.466;9.486;2023-05-10T14:36:57;95578.47;;;18.30;56.11
37892;BME280;45797;47.466;9.486;2023-05-10T14:41:57;95566.22;;;18.29;56.13
37892;BME280;45797;47.466;9.486;2023-05-10T14:46:59;95563.38;;;18.31;55.88
37892;BME280;45797;47.466;9.486;2023-05-10T14:52:00;95571.50;;;18.29;55.90
37892;BME280;45797;47.466;9.486;2023-05-10T14:57:03;95570.66;;;18.28;55.67
37892;BME280;45797;47.466;9.486;2023-05-10T15:02:05;95577.13;;;18.26;55.54
37892;BME280;45797;47.466;9.486;2023-05-10T15:07:14;95572.63;;;18.18;55.58
37892;BME280;45797;47.466;9.486;2023-05-10T15:12:18;95576.94;;;18.11;55.99
37892;BME280;45797;47.466;9.486;2023-05-10T15:17:22;95579.72;;;18.10;55.78
37892;BME280;45797;47.466;9.486;2023-05-10T15:22:24;95577.78;;;18.12;55.43
37892;BME280;45797;47.466;9.486;2023-05-10T15:27:25;95580.41;;;18.04;56.10
37892;BME280;45797;47.466;9.486;2023-05-10T15:32:26;95574.22;;;17.87;56.21
37892;BME280;45797;47.466;9.486;2023-05-10T15:37:26;95570.66;;;17.70;56.50
37892;BME280;45797;47.466;9.486;2023-05-10T15:42:28;95577.72;;;17.61;56.81
37892;BME280;45797;47.466;9.486;2023-05-10T15:47:29;95577.22;;;17.58;57.17
37892;BME280;45797;47.466;9.486;2023-05-10T15:52:32;95583.00;;;17.61;56.61
37892;BME280;45797;47.466;9.486;2023-05-10T15:57:41;95586.47;;;17.54;56.66
37892;BME280;45797;47.466;9.486;2023-05-10T16:02:42;95588.06;;;17.38;57.43
37892;BME280;45797;47.466;9.486;2023-05-10T16:07:42;95592.47;;;17.30;57.59
37892;BME280;45797;47.466;9.486;2023-05-10T16:12:42;95588.50;;;17.26;57.00
37892;BME280;45797;47.466;9.486;2023-05-10T16:17:48;95586.50;;;17.28;56.98
37892;BME280;45797;47.466;9.486;2023-05-10T16:22:48;95588.63;;;17.24;57.11
37892;BME280;45797;47.466;9.486;2023-05-10T16:27:49;95599.03;;;17.18;56.97
37892;BME280;45797;47.466;9.486;2023-05-10T16:32:51;95602.28;;;17.11;57.00
37892;BME280;45797;47.466;9.486;2023-05-10T16:37:57;95605.53;;;17.05;57.18
37892;BME280;45797;47.466;9.486;2023-05-10T16:43:07;95604.53;;;16.98;57.32
37892;BME280;45797;47.466;9.486;2023-05-10T16:48:07;95612.91;;;16.94;57.29
37892;BME280;45797;47.466;9.486;2023-05-10T16:53:08;95611.72;;;16.88;57.61
37892;BME280;45797;47.466;9.486;2023-05-10T16:58:15;95625.47;;;16.74;57.64
37892;BME280;45797;47.466;9.486;2023-05-10T17:03:16;95627.00;;;16.59;57.63
37892;BME280;45797;47.466;9.486;2023-05-10T17:08:16;95625.25;;;16.49;57.97
37892;BME280;45797;47.466;9.486;2023-05-10T17:13:18;95632.94;;;16.43;57.89
37892;BME280;45797;47.466;9.486;2023-05-10T17:18:19;95636.63;;;16.32;58.30
37892;BME280;45797;47.466;9.486;2023-05-10T17:23:19;95635.88;;;16.22;58.29
37892;BME280;45797;47.466;9.486;2023-05-10T17:28:20;95634.13;;;16.13;58.55
37892;BME280;45797;47.466;9.486;2023-05-10T17:33:24;95636.66;;;16.05;58.22
37892;BME280;45797;47.466;9.486;2023-05-10T17:38:27;95644.19;;;15.99;58.65
37892;BME280;45797;47.466;9.486;2023-05-10T17:43:29;95628.81;;;15.95;58.80
37892;BME280;45797;47.466;9.486;2023-05-10T17:48:30;95630.22;;;15.89;58.69
37892;BME280;45797;47.466;9.486;2023-05-10T17:53:34;95636.94;;;15.84;58.97
37892;BME280;45797;47.466;9.486;2023-05-10T17:58:35;95651.16;;;15.73;58.86
37892;BME280;45797;47.466;9.486;2023-05-10T18:03:39;95656.03;;;15.58;59.56
37892;BME280;45797;47.466;9.486;2023-05-10T18:08:39;95643.06;;;15.37;59.33
37892;BME280;45797;47.466;9.486;2023-05-10T18:13:40;95643.09;;;15.18;59.47
37892;BME280;45797;47.466;9.486;2023-05-10T18:18:43;95638.25;;;15.04;59.81
37892;BME280;45797;47.466;9.486;2023-05-10T18:23:44;95649.41;;;14.88;60.29
37892;BME280;45797;47.466;9.486;2023-05-10T18:28:45;95649.69;;;14.75;60.42
37892;BME280;45797;47.466;9.486;2023-05-10T18:33:53;95645.09;;;14.58;60.59
37892;BME280;45797;47.466;9.486;2023-05-10T18:39:02;95638.41;;;14.44;60.49
37892;BME280;45797;47.466;9.486;2023-05-10T18:44:04;95632.84;;;14.38;60.68
37892;BME280;45797;47.466;9.486;2023-05-10T18:49:11;95631.03;;;14.28;60.75
37892;BME280;45797;47.466;9.486;2023-05-10T18:54:14;95640.75;;;14.18;60.70
37892;BME280;45797;47.466;9.486;2023-05-10T18:59:14;95639.88;;;14.08;60.62
37892;BME280;45797;47.466;9.486;2023-05-10T19:04:18;95632.41;;;14.04;60.62
37892;BME280;45797;47.466;9.486;2023-05-10T19:09:18;95653.19;;;13.97;60.96
37892;BME280;45797;47.466;9.486;2023-05-10T19:14:20;95656.09;;;13.94;60.93
37892;BME280;45797;47.466;9.486;2023-05-10T19:19:21;95650.09;;;13.92;60.91
37892;BME280;45797;47.466;9.486;2023-05-10T19:24:23;95650.81;;;13.94;60.72
37892;BME280;45797;47.466;9.486;2023-05-10T19:29:45;95662.56;;;13.90;60.66
37892;BME280;45797;47.466;9.486;2023-05-10T19:34:45;95665.06;;;13.91;60.49
37892;BME280;45797;47.466;9.486;2023-05-10T19:39:49;95667.31;;;13.96;60.35
37892;BME280;45797;47.466;9.486;2023-05-10T19:44:56;95672.44;;;13.97;60.28
37892;BME280;45797;47.466;9.486;2023-05-10T19:49:58;95675.53;;;14.03;60.20
37892;BME280;45797;47.466;9.486;2023-05-10T19:54:59;95685.34;;;14.10;60.07
37892;BME280;45797;47.466;9.486;2023-05-10T20:00:00;95677.63;;;14.18;60.02
37892;BME280;45797;47.466;9.486;2023-05-10T20:05:03;95684.03;;;14.25;59.95
37892;BME280;45797;47.466;9.486;2023-05-10T20:10:03;95689.97;;;14.27;59.94
37892;BME280;45797;47.466;9.486;2023-05-10T20:15:05;95689.97;;;14.27;59.74
37892;BME280;45797;47.466;9.486;2023-05-10T20:20:09;95697.06;;;14.27;59.94
37892;BME280;45797;47.466;9.486;2023-05-10T20:25:12;95685.69;;;14.26;60.33
37892;BME280;45797;47.466;9.486;2023-05-10T20:30:13;95693.03;;;14.23;60.49
37892;BME280;45797;47.466;9.486;2023-05-10T20:35:14;95684.31;;;14.22;60.48
37892;BME280;45797;47.466;9.486;2023-05-10T20:40:16;95687.63;;;14.24;60.34
37892;BME280;45797;47.466;9.486;2023-05-10T20:45:18;95685.28;;;14.21;60.32
37892;BME280;45797;47.466;9.486;2023-05-10T20:50:18;95678.59;;;14.17;60.35
37892;BME280;45797;47.466;9.486;2023-05-10T20:55:20;95683.84;;;14.08;61.07
37892;BME280;45797;47.466;9.486;2023-05-10T21:00:20;95686.72;;;13.95;61.33
37892;BME280;45797;47.466;9.486;2023-05-10T21:05:22;95681.97;;;13.89;61.41
37892;BME280;45797;47.466;9.486;2023-05-10T21:10:24;95681.66;;;13.82;61.69
37892;BME280;45797;47.466;9.486;2023-05-10T21:15:27;95680.56;;;13.75;61.81
37892;BME280;45797;47.466;9.486;2023-05-10T21:20:28;95679.00;;;13.72;61.86
37892;BME280;45797;47.466;9.486;2023-05-10T21:25:28;95674.28;;;13.66;62.16
37892;BME280;45797;47.466;9.486;2023-05-10T21:30:28;95664.13;;;13.62;61.85
37892;BME280;45797;47.466;9.486;2023-05-10T21:35:30;95663.31;;;13.61;62.14
37892;BME280;45797;47.466;9.486;2023-05-10T21:40:30;95667.03;;;13.59;62.26
37892;BME280;45797;47.466;9.486;2023-05-10T21:45:30;95668.97;;;13.57;62.18
37892;BME280;45797;47.466;9.486;2023-05-10T21:50:35;95668.25;;;13.55;62.19
37892;BME280;45797;47.466;9.486;2023-05-10T21:55:39;95657.72;;;13.55;62.44
37892;BME280;45797;47.466;9.486;2023-05-10T22:00:42;95665.53;;;13.56;62.29
37892;BME280;45797;47.466;9.486;2023-05-10T22:05:50;95665.75;;;13.53;62.63
37892;BME280;45797;47.466;9.486;2023-05-10T22:10:50;95661.47;;;13.52;62.84
37892;BME280;45797;47.466;9.486;2023-05-10T22:15:52;95662.16;;;13.54;62.41
37892;BME280;45797;47.466;9.486;2023-05-10T22:20:54;95667.69;;;13.51;62.57
37892;BME280;45797;47.466;9.486;2023-05-10T22:26:04;95655.50;;;13.50;62.72
37892;BME280;45797;47.466;9.486;2023-05-10T22:31:09;95673.78;;;13.52;63.00
37892;BME280;45797;47.466;9.486;2023-05-10T22:36:12;95668.66;;;13.50;62.68
37892;BME280;45797;47.466;9.486;2023-05-10T22:41:15;95675.03;;;13.48;62.98
37892;BME280;45797;47.466;9.486;2023-05-10T22:46:24;95673.09;;;13.50;62.51
37892;BME280;45797;47.466;9.486;2023-05-10T22:51:27;95666.72;;;13.52;62.82
37892;BME280;45797;47.466;9.486;2023-05-10T22:56:33;95667.69;;;13.51;62.84
37892;BME280;45797;47.466;9.486;2023-05-10T23:01:43;95675.03;;;13.48;63.38
37892;BME280;45797;47.466;9.486;2023-05-10T23:06:49;95673.38;;;13.47;62.96
37892;BME280;45797;47.466;9.486;2023-05-10T23:11:50;95677.34;;;13.41;63.33
37892;BME280;45797;47.466;9.486;2023-05-10T23:16:57;95685.22;;;13.41;63.12
37892;BME280;45797;47.466;9.486;2023-05-10T23:21:59;95681.22;;;13.37;63.33
37892;BME280;45797;47.466;9.486;2023-05-10T23:27:01;95685.03;;;13.33;63.35
37892;BME280;45797;47.466;9.486;2023-05-10T23:32:11;95693.47;;;13.27;63.30
37892;BME280;45797;47.466;9.486;2023-05-10T23:37:21;95678.19;;;13.21;63.46
37892;BME280;45797;47.466;9.486;2023-05-10T23:42:23;95681.06;;;13.18;63.86
37892;BME280;45797;47.466;9.486;2023-05-10T23:47:24;95677.72;;;13.15;63.32
37892;BME280;45797;47.466;9.486;2023-05-10T23:52:32;95671.63;;;13.15;63.68
37892;BME280;45797;47.466;9.486;2023-05-10T23:57:34;95670.09;;;13.12;63.43
